PWSweather.com
Personal Weather Stations
Station Observations
WAIROAHB
Wairoa, Northern Hawkes Bay -NZ 4108

WairoaNorthern Hawkes Bay -NZ 4108

Lat: -39.04516934, Lon: 177.4263989

Elevation: 156

Station Type: WS3083

http://wairoa.net/weather/index.htm

High Low Average
Temperature 71.4°F21.9°C 58.3°F14.6°C 62.9°F17.2°C
Dew Point 63.1°F17.3°C 51.2°F10.7°C 57.3°F14.1°C
Winds 16.8 mph 27.0 kmh Calm Calm 6.0 mph SSW9.7 kmh SSW
Wind Gusts 27.3 mph43.9 kmh -- 11.0 mph17.7 kmh
Humidity 99% 57% 84%
Pressure 30.02 in1016.6 mb 29.62 in1003.0 mb -
Precipitation 0.39 in9.9 mm - -
Hour Temp Dew Point Humidity Winds Wind Gusts Pressure Precip Precip Rate Daily Precip Total
12:00 AM 69.8°F21.0°C 55.3°F12.9°C 60% 6.0 mph N9.7 kmh N 13.6 mph21.9 kmh 29.65 in1004.1 mb 0.00 in0.0 mm 0.00 in0.0 mm 0.00 in0.0 mm
12:10 AM 69.8°F21.0°C 55.3°F12.9°C 60% 6.0 mph NNW9.7 kmh NNW 16.8 mph27.0 kmh 29.65 in1004.1 mb 0.00 in0.0 mm 0.00 in0.0 mm 0.00 in0.0 mm
12:20 AM 69.4°F20.8°C 56.3°F13.5°C 63% 7.6 mph NW12.2 kmh NW 11.4 mph18.3 kmh 29.64 in1003.7 mb 0.00 in0.0 mm 0.00 in0.0 mm 0.00 in0.0 mm
12:30 AM 69.6°F20.9°C 56.5°F13.6°C 63% 5.4 mph N8.7 kmh N 11.4 mph18.3 kmh 29.62 in1003.0 mb 0.00 in0.0 mm 0.00 in0.0 mm 0.00 in0.0 mm
12:40 AM 70.0°F21.1°C 56.4°F13.6°C 62% 8.3 mph NNE13.4 kmh NNE 13.0 mph20.9 kmh 29.62 in1003.0 mb 0.00 in0.0 mm 0.00 in0.0 mm 0.00 in0.0 mm
12:50 AM 70.2°F21.2°C 56.6°F13.7°C 62% 6.9 mph N11.1 kmh N 13.0 mph20.9 kmh 29.62 in1003.0 mb 0.00 in0.0 mm 0.00 in0.0 mm 0.00 in0.0 mm
01:00 AM 69.8°F21.0°C 56.7°F13.7°C 63% 3.8 mph NNW6.1 kmh NNW 15.2 mph24.5 kmh 29.63 in1003.4 mb 0.00 in0.0 mm 0.00 in0.0 mm 0.00 in0.0 mm
01:10 AM 69.4°F20.8°C 57.2°F14.0°C 65% 6.0 mph NNW9.7 kmh NNW 9.8 mph15.8 kmh 29.63 in1003.4 mb 0.00 in0.0 mm 0.00 in0.0 mm 0.00 in0.0 mm
01:20 AM 69.1°F20.6°C 57.3°F14.1°C 66% 4.5 mph N7.2 kmh N 11.4 mph18.3 kmh 29.62 in1003.0 mb 0.00 in0.0 mm 0.00 in0.0 mm 0.00 in0.0 mm
01:30 AM 69.8°F21.0°C 57.5°F14.2°C 65% 3.8 mph N6.1 kmh N 14.5 mph23.3 kmh 29.63 in1003.4 mb 0.00 in0.0 mm 0.00 in0.0 mm 0.00 in0.0 mm
01:40 AM 70.0°F21.1°C 57.7°F14.3°C 65% 5.4 mph N8.7 kmh N 11.4 mph18.3 kmh 29.63 in1003.4 mb 0.00 in0.0 mm 0.00 in0.0 mm 0.00 in0.0 mm
01:50 AM 70.0°F21.1°C 57.7°F14.3°C 65% 5.4 mph N8.7 kmh N 9.8 mph15.8 kmh 29.63 in1003.4 mb 0.00 in0.0 mm 0.00 in0.0 mm 0.00 in0.0 mm
02:00 AM 69.8°F21.0°C 58.0°F14.4°C 66% 3.8 mph N6.1 kmh N 11.4 mph18.3 kmh 29.63 in1003.4 mb 0.00 in0.0 mm 0.00 in0.0 mm 0.00 in0.0 mm
02:10 AM 69.4°F20.8°C 58.4°F14.7°C 68% 5.4 mph N8.7 kmh N 7.6 mph12.2 kmh 29.63 in1003.4 mb 0.00 in0.0 mm 0.00 in0.0 mm 0.00 in0.0 mm
02:20 AM 69.3°F20.7°C 59.1°F15.1°C 70% 5.4 mph N8.7 kmh N 9.2 mph14.8 kmh 29.63 in1003.4 mb 0.00 in0.0 mm 0.00 in0.0 mm 0.00 in0.0 mm
02:30 AM 69.3°F20.7°C 59.5°F15.3°C 71% 6.0 mph N9.7 kmh N 13.0 mph20.9 kmh 29.62 in1003.0 mb 0.00 in0.0 mm 0.00 in0.0 mm 0.00 in0.0 mm
02:40 AM 69.8°F21.0°C 60.4°F15.8°C 72% 8.3 mph NNW13.4 kmh NNW 15.9 mph25.6 kmh 29.63 in1003.4 mb 0.00 in0.0 mm 0.00 in0.0 mm 0.00 in0.0 mm
02:50 AM 70.9°F21.6°C 60.6°F15.9°C 70% 6.9 mph NNW11.1 kmh NNW 14.5 mph23.3 kmh 29.62 in1003.0 mb 0.00 in0.0 mm 0.00 in0.0 mm 0.00 in0.0 mm
03:00 AM 70.9°F21.6°C 60.6°F15.9°C 70% 7.6 mph NW12.2 kmh NW 17.4 mph28.0 kmh 29.62 in1003.0 mb 0.00 in0.0 mm 0.00 in0.0 mm 0.00 in0.0 mm
03:10 AM 71.1°F21.7°C 61.2°F16.2°C 71% 9.2 mph NNW14.8 kmh NNW 17.4 mph28.0 kmh 29.62 in1003.0 mb 0.00 in0.0 mm 0.00 in0.0 mm 0.00 in0.0 mm
03:20 AM 71.4°F21.9°C 61.6°F16.4°C 71% 9.2 mph NW14.8 kmh NW 21.3 mph34.3 kmh 29.63 in1003.4 mb 0.00 in0.0 mm 0.00 in0.0 mm 0.00 in0.0 mm
03:30 AM 71.4°F21.9°C 62.0°F16.7°C 72% 5.4 mph NW8.7 kmh NW 13.6 mph21.9 kmh 29.65 in1004.1 mb 0.00 in0.0 mm 0.00 in0.0 mm 0.00 in0.0 mm
03:40 AM 67.1°F19.5°C 63.1°F17.3°C 87% 15.9 mph SW25.6 kmh SW 22.1 mph35.6 kmh 29.70 in1005.8 mb 0.01 in0.3 mm 0.06 in1.5 mm 0.01 in0.3 mm
03:50 AM 63.9°F17.7°C 62.4°F16.9°C 95% 15.9 mph WSW25.6 kmh WSW 24.4 mph39.3 kmh 29.70 in1005.8 mb 0.02 in0.5 mm 0.06 in1.5 mm 0.02 in0.5 mm
04:00 AM 63.3°F17.4°C 62.5°F16.9°C 97% 16.8 mph W27.0 kmh W 26.6 mph42.8 kmh 29.72 in1006.4 mb 0.02 in0.5 mm 0.00 in0.0 mm 0.02 in0.5 mm
04:10 AM 63.0°F17.2°C 62.1°F16.7°C 97% 8.3 mph WSW13.4 kmh WSW 25.9 mph41.7 kmh 29.73 in1006.8 mb 0.02 in0.5 mm 0.00 in0.0 mm 0.02 in0.5 mm
04:20 AM 62.2°F16.8°C 61.7°F16.5°C 98% 7.6 mph NW12.2 kmh NW 27.3 mph43.9 kmh 29.73 in1006.8 mb 0.04 in1.0 mm 0.12 in3.0 mm 0.04 in1.0 mm
04:30 AM 62.2°F16.8°C 61.7°F16.5°C 98% 7.6 mph WSW12.2 kmh WSW 21.3 mph34.3 kmh 29.74 in1007.1 mb 0.04 in1.0 mm 0.00 in0.0 mm 0.04 in1.0 mm
04:40 AM 61.9°F16.6°C 61.3°F16.3°C 98% 15.2 mph WNW24.5 kmh WNW 23.5 mph37.8 kmh 29.75 in1007.5 mb 0.04 in1.0 mm 0.00 in0.0 mm 0.05 in1.3 mm
04:50 AM 61.9°F16.6°C 61.3°F16.3°C 98% 9.8 mph W15.8 kmh W 23.5 mph37.8 kmh 29.76 in1007.8 mb 0.02 in0.5 mm 0.00 in0.0 mm 0.05 in1.3 mm
05:00 AM 61.2°F16.2°C 60.6°F15.9°C 98% 12.1 mph WNW19.5 kmh WNW 25.1 mph40.4 kmh 29.77 in1008.1 mb 0.05 in1.3 mm 0.04 in1.0 mm 0.07 in1.8 mm
05:10 AM 61.2°F16.2°C 60.6°F15.9°C 98% 8.3 mph NW13.4 kmh NW 24.4 mph39.3 kmh 29.78 in1008.5 mb 0.06 in1.5 mm 0.06 in1.5 mm 0.08 in2.0 mm
05:20 AM 61.0°F16.1°C 60.4°F15.8°C 98% 11.4 mph WSW18.3 kmh WSW 22.8 mph36.7 kmh 29.79 in1008.8 mb 0.06 in1.5 mm 0.00 in0.0 mm 0.09 in2.3 mm
05:30 AM 60.8°F16.0°C 60.2°F15.7°C 98% 11.4 mph W18.3 kmh W 19.7 mph31.7 kmh 29.79 in1008.8 mb 0.07 in1.8 mm 0.06 in1.5 mm 0.11 in2.8 mm
05:40 AM 60.4°F15.8°C 60.2°F15.7°C 99% 9.2 mph WSW14.8 kmh WSW 19.7 mph31.7 kmh 29.80 in1009.1 mb 0.07 in1.8 mm 0.00 in0.0 mm 0.12 in3.0 mm
05:50 AM 60.4°F15.8°C 60.2°F15.7°C 99% 12.1 mph W19.5 kmh W 17.4 mph28.0 kmh 29.82 in1009.8 mb 0.08 in2.0 mm 0.06 in1.5 mm 0.13 in3.3 mm
06:00 AM 60.3°F15.7°C 60.0°F15.6°C 99% 9.2 mph SW14.8 kmh SW 20.6 mph33.2 kmh 29.82 in1009.8 mb 0.07 in1.8 mm 0.00 in0.0 mm 0.14 in3.6 mm
06:10 AM 59.7°F15.4°C 59.5°F15.3°C 99% 13.6 mph WSW21.9 kmh WSW 21.3 mph34.3 kmh 29.83 in1010.2 mb 0.08 in2.0 mm 0.06 in1.5 mm 0.17 in4.3 mm
06:20 AM 59.7°F15.4°C 59.5°F15.3°C 99% 9.8 mph WSW15.8 kmh WSW 19.7 mph31.7 kmh 29.84 in1010.5 mb 0.07 in1.8 mm 0.00 in0.0 mm 0.17 in4.3 mm
06:30 AM 59.9°F15.5°C 59.6°F15.3°C 99% 13.6 mph SW21.9 kmh SW 21.3 mph34.3 kmh 29.84 in1010.5 mb 0.07 in1.8 mm 0.00 in0.0 mm 0.18 in4.6 mm
06:40 AM 59.5°F15.3°C 59.3°F15.2°C 99% 9.2 mph SW14.8 kmh SW 19.0 mph30.6 kmh 29.85 in1010.8 mb 0.08 in2.0 mm 0.06 in1.5 mm 0.20 in5.1 mm
06:50 AM 59.4°F15.2°C 59.1°F15.1°C 99% 12.1 mph WSW19.5 kmh WSW 16.8 mph27.0 kmh 29.86 in1011.2 mb 0.08 in2.0 mm 0.00 in0.0 mm 0.21 in5.3 mm
07:00 AM 59.0°F15.0°C 58.7°F14.8°C 99% 8.3 mph WSW13.4 kmh WSW 18.3 mph29.5 kmh 29.86 in1011.2 mb 0.09 in2.3 mm 0.01 in0.3 mm 0.24 in6.1 mm
07:10 AM 59.0°F15.0°C 58.7°F14.8°C 99% 8.3 mph WSW13.4 kmh WSW 14.5 mph23.3 kmh 29.86 in1011.2 mb 0.07 in1.8 mm 0.00 in0.0 mm 0.24 in6.1 mm
07:20 AM 59.2°F15.1°C 58.9°F14.9°C 99% 6.9 mph WSW11.1 kmh WSW 15.2 mph24.5 kmh 29.87 in1011.5 mb 0.07 in1.8 mm 0.00 in0.0 mm 0.24 in6.1 mm
07:30 AM 59.4°F15.2°C 59.1°F15.1°C 99% 6.0 mph SW9.7 kmh SW 14.5 mph23.3 kmh 29.88 in1011.9 mb 0.06 in1.5 mm 0.00 in0.0 mm 0.24 in6.1 mm
07:40 AM 59.2°F15.1°C 58.9°F14.9°C 99% 4.5 mph SW7.2 kmh SW 13.0 mph20.9 kmh 29.87 in1011.5 mb 0.04 in1.0 mm 0.00 in0.0 mm 0.24 in6.1 mm
07:50 AM 59.4°F15.2°C 59.1°F15.1°C 99% 4.5 mph WSW7.2 kmh WSW 11.4 mph18.3 kmh 29.88 in1011.9 mb 0.02 in0.5 mm 0.00 in0.0 mm 0.24 in6.1 mm
08:00 AM 59.2°F15.1°C 58.9°F14.9°C 99% 10.7 mph SW17.2 kmh SW 14.5 mph23.3 kmh 29.89 in1012.2 mb 0.00 in0.0 mm 0.00 in0.0 mm 0.24 in6.1 mm
08:10 AM 59.0°F15.0°C 58.7°F14.8°C 99% 7.6 mph SW12.2 kmh SW 14.5 mph23.3 kmh 29.89 in1012.2 mb 0.01 in0.3 mm 0.06 in1.5 mm 0.25 in6.4 mm
08:20 AM 58.6°F14.8°C 58.4°F14.7°C 99% 8.3 mph SW13.4 kmh SW 16.8 mph27.0 kmh 29.90 in1012.5 mb 0.02 in0.5 mm 0.06 in1.5 mm 0.26 in6.6 mm
08:30 AM 58.6°F14.8°C 58.4°F14.7°C 99% 8.3 mph SW13.4 kmh SW 13.6 mph21.9 kmh 29.91 in1012.9 mb 0.04 in1.0 mm 0.12 in3.0 mm 0.27 in6.9 mm
08:40 AM 58.5°F14.7°C 58.2°F14.6°C 99% 6.0 mph WSW9.7 kmh WSW 14.5 mph23.3 kmh 29.90 in1012.5 mb 0.05 in1.3 mm 0.06 in1.5 mm 0.28 in7.1 mm
08:50 AM 58.6°F14.8°C 58.4°F14.7°C 99% 6.0 mph WSW9.7 kmh WSW 13.6 mph21.9 kmh 29.91 in1012.9 mb 0.05 in1.3 mm 0.00 in0.0 mm 0.28 in7.1 mm
09:00 AM 59.0°F15.0°C 58.7°F14.8°C 99% 6.9 mph WSW11.1 kmh WSW 15.2 mph24.5 kmh 29.91 in1012.9 mb 0.05 in1.3 mm 0.00 in0.0 mm 0.28 in7.1 mm
09:10 AM 58.6°F14.8°C 58.4°F14.7°C 99% 4.5 mph WSW7.2 kmh WSW 15.2 mph24.5 kmh 29.91 in1012.9 mb 0.05 in1.3 mm 0.00 in0.0 mm 0.30 in7.6 mm
09:20 AM 58.6°F14.8°C 58.4°F14.7°C 99% 6.9 mph W11.1 kmh W 13.0 mph20.9 kmh 29.91 in1012.9 mb 0.04 in1.0 mm 0.00 in0.0 mm 0.30 in7.6 mm
09:30 AM 58.6°F14.8°C 58.4°F14.7°C 99% 4.5 mph WSW7.2 kmh WSW 13.6 mph21.9 kmh 29.91 in1012.9 mb 0.02 in0.5 mm 0.00 in0.0 mm 0.30 in7.6 mm
09:40 AM 58.6°F14.8°C 58.4°F14.7°C 99% 8.3 mph SW13.4 kmh SW 16.8 mph27.0 kmh 29.92 in1013.2 mb 0.02 in0.5 mm 0.00 in0.0 mm 0.31 in7.9 mm
09:50 AM 58.6°F14.8°C 58.4°F14.7°C 99% 9.8 mph SW15.8 kmh SW 15.9 mph25.6 kmh 29.92 in1013.2 mb 0.02 in0.5 mm 0.00 in0.0 mm 0.31 in7.9 mm
10:00 AM 59.4°F15.2°C 59.1°F15.1°C 99% 6.9 mph SW11.1 kmh SW 13.0 mph20.9 kmh 29.93 in1013.5 mb 0.02 in0.5 mm 0.00 in0.0 mm 0.31 in7.9 mm
10:10 AM 59.9°F15.5°C 59.6°F15.3°C 99% 8.3 mph WSW13.4 kmh WSW 13.0 mph20.9 kmh 29.93 in1013.5 mb 0.01 in0.3 mm 0.00 in0.0 mm 0.31 in7.9 mm
10:20 AM 60.4°F15.8°C 60.2°F15.7°C 99% 8.3 mph SW13.4 kmh SW 15.2 mph24.5 kmh 29.93 in1013.5 mb 0.01 in0.3 mm 0.00 in0.0 mm 0.31 in7.9 mm
10:30 AM 60.8°F16.0°C 59.7°F15.4°C 96% 10.7 mph W17.2 kmh W 15.2 mph24.5 kmh 29.93 in1013.5 mb 0.01 in0.3 mm 0.00 in0.0 mm 0.31 in7.9 mm
10:40 AM 60.6°F15.9°C 59.5°F15.3°C 96% 9.2 mph NW14.8 kmh NW 16.8 mph27.0 kmh 29.93 in1013.5 mb 0.00 in0.0 mm 0.00 in0.0 mm 0.31 in7.9 mm
10:50 AM 59.9°F15.5°C 59.1°F15.1°C 97% 13.0 mph NW20.9 kmh NW 18.3 mph29.5 kmh 29.93 in1013.5 mb 0.00 in0.0 mm 0.00 in0.0 mm 0.31 in7.9 mm
11:00 AM 59.0°F15.0°C 58.4°F14.7°C 98% 6.9 mph W11.1 kmh W 18.3 mph29.5 kmh 29.94 in1013.9 mb 0.01 in0.3 mm 0.01 in0.3 mm 0.32 in8.1 mm
11:10 AM 59.0°F15.0°C 58.7°F14.8°C 99% 5.4 mph WNW8.7 kmh WNW 15.9 mph25.6 kmh 29.93 in1013.5 mb 0.01 in0.3 mm 0.00 in0.0 mm 0.32 in8.1 mm
11:20 AM 59.4°F15.2°C 59.1°F15.1°C 99% 6.0 mph WSW9.7 kmh WSW 13.6 mph21.9 kmh 29.94 in1013.9 mb 0.01 in0.3 mm 0.00 in0.0 mm 0.32 in8.1 mm
11:30 AM 59.2°F15.1°C 58.9°F14.9°C 99% 10.7 mph WSW17.2 kmh WSW 15.2 mph24.5 kmh 29.94 in1013.9 mb 0.01 in0.3 mm 0.00 in0.0 mm 0.32 in8.1 mm
11:40 AM 58.6°F14.8°C 58.4°F14.7°C 99% 7.6 mph N12.2 kmh N 15.2 mph24.5 kmh 29.94 in1013.9 mb 0.06 in1.5 mm 0.30 in7.6 mm 0.37 in9.4 mm
11:50 AM 58.5°F14.7°C 58.2°F14.6°C 99% 6.0 mph WSW9.7 kmh WSW 13.6 mph21.9 kmh 29.94 in1013.9 mb 0.07 in1.8 mm 0.06 in1.5 mm 0.38 in9.7 mm
12:00 PM 58.5°F14.7°C 58.2°F14.6°C 99% 6.9 mph SW11.1 kmh SW 11.4 mph18.3 kmh 29.94 in1013.9 mb 0.06 in1.5 mm 0.00 in0.0 mm 0.38 in9.7 mm
12:10 PM 60.4°F15.8°C 59.9°F15.5°C 98% 3.1 mph SW5.0 kmh SW 9.2 mph14.8 kmh 29.94 in1013.9 mb 0.06 in1.5 mm 0.00 in0.0 mm 0.38 in9.7 mm
12:20 PM 61.9°F16.6°C 59.5°F15.3°C 92% 3.1 mph SW5.0 kmh SW 7.6 mph12.2 kmh 29.94 in1013.9 mb 0.06 in1.5 mm 0.00 in0.0 mm 0.38 in9.7 mm
12:30 PM 62.6°F17.0°C 57.4°F14.1°C 83% 7.6 mph WSW12.2 kmh WSW 15.2 mph24.5 kmh 29.94 in1013.9 mb 0.06 in1.5 mm 0.00 in0.0 mm 0.38 in9.7 mm
12:40 PM 62.2°F16.8°C 57.0°F13.9°C 83% 6.9 mph N11.1 kmh N 14.5 mph23.3 kmh 29.94 in1013.9 mb 0.01 in0.3 mm 0.00 in0.0 mm 0.38 in9.7 mm
12:50 PM 62.8°F17.1°C 56.2°F13.4°C 79% 9.2 mph NNW14.8 kmh NNW 15.9 mph25.6 kmh 29.95 in1014.2 mb 0.00 in0.0 mm 0.00 in0.0 mm 0.38 in9.7 mm
01:00 PM 63.1°F17.3°C 55.5°F13.1°C 76% 6.9 mph W11.1 kmh W 13.0 mph20.9 kmh 29.95 in1014.2 mb 0.00 in0.0 mm 0.00 in0.0 mm 0.38 in9.7 mm
01:10 PM 63.0°F17.2°C 56.4°F13.6°C 79% 10.7 mph WNW17.2 kmh WNW 15.2 mph24.5 kmh 29.95 in1014.2 mb 0.00 in0.0 mm 0.00 in0.0 mm 0.38 in9.7 mm
01:20 PM 63.0°F17.2°C 56.7°F13.7°C 80% 6.0 mph W9.7 kmh W 15.2 mph24.5 kmh 29.95 in1014.2 mb 0.00 in0.0 mm 0.00 in0.0 mm 0.38 in9.7 mm
01:30 PM 63.3°F17.4°C 55.6°F13.1°C 76% 6.0 mph WSW9.7 kmh WSW 11.4 mph18.3 kmh 29.95 in1014.2 mb 0.00 in0.0 mm 0.00 in0.0 mm 0.38 in9.7 mm
01:40 PM 63.5°F17.5°C 55.1°F12.8°C 74% 7.6 mph WSW12.2 kmh WSW 11.4 mph18.3 kmh 29.95 in1014.2 mb 0.00 in0.0 mm 0.00 in0.0 mm 0.38 in9.7 mm
01:50 PM 63.9°F17.7°C 54.7°F12.6°C 72% 4.5 mph WSW7.2 kmh WSW 10.7 mph17.2 kmh 29.95 in1014.2 mb 0.00 in0.0 mm 0.00 in0.0 mm 0.38 in9.7 mm
02:00 PM 64.6°F18.1°C 55.0°F12.8°C 71% 7.6 mph SW12.2 kmh SW 10.7 mph17.2 kmh 29.96 in1014.6 mb 0.00 in0.0 mm 0.00 in0.0 mm 0.38 in9.7 mm
02:10 PM 64.6°F18.1°C 54.2°F12.3°C 69% 8.3 mph WSW13.4 kmh WSW 14.5 mph23.3 kmh 29.95 in1014.2 mb 0.00 in0.0 mm 0.00 in0.0 mm 0.38 in9.7 mm
02:20 PM 64.6°F18.1°C 53.8°F12.1°C 68% 3.8 mph SSE6.1 kmh SSE 11.4 mph18.3 kmh 29.95 in1014.2 mb 0.00 in0.0 mm 0.00 in0.0 mm 0.38 in9.7 mm
02:30 PM 65.1°F18.4°C 53.9°F12.2°C 67% 3.1 mph SE5.0 kmh SE 8.3 mph13.4 kmh 29.95 in1014.2 mb 0.00 in0.0 mm 0.00 in0.0 mm 0.38 in9.7 mm
02:40 PM 64.4°F18.0°C 54.0°F12.2°C 69% 6.0 mph WNW9.7 kmh WNW 13.0 mph20.9 kmh 29.95 in1014.2 mb 0.00 in0.0 mm 0.00 in0.0 mm 0.38 in9.7 mm
02:50 PM 64.4°F18.0°C 54.8°F12.7°C 71% 0.7 mph WSW1.1 kmh WSW 9.2 mph14.8 kmh 29.95 in1014.2 mb 0.00 in0.0 mm 0.00 in0.0 mm 0.38 in9.7 mm
03:00 PM 64.6°F18.1°C 54.2°F12.3°C 69% 4.5 mph WSW7.2 kmh WSW 8.3 mph13.4 kmh 29.95 in1014.2 mb 0.00 in0.0 mm 0.00 in0.0 mm 0.38 in9.7 mm
03:10 PM 65.8°F18.8°C 54.2°F12.3°C 66% 3.1 mph WSW5.0 kmh WSW 10.7 mph17.2 kmh 29.95 in1014.2 mb 0.00 in0.0 mm 0.00 in0.0 mm 0.38 in9.7 mm
03:20 PM 66.7°F19.3°C 53.8°F12.1°C 63% 4.5 mph SW7.2 kmh SW 8.3 mph13.4 kmh 29.95 in1014.2 mb 0.00 in0.0 mm 0.00 in0.0 mm 0.38 in9.7 mm
03:30 PM 67.1°F19.5°C 53.2°F11.8°C 61% 4.5 mph SW7.2 kmh SW 8.3 mph13.4 kmh 29.95 in1014.2 mb 0.01 in0.3 mm 0.06 in1.5 mm 0.39 in9.9 mm
03:40 PM 66.4°F19.1°C 53.4°F11.9°C 63% 3.1 mph SW5.0 kmh SW 9.2 mph14.8 kmh 29.95 in1014.2 mb 0.01 in0.3 mm 0.00 in0.0 mm 0.39 in9.9 mm
03:50 PM 66.0°F18.9°C 53.1°F11.7°C 63% 3.1 mph SW5.0 kmh SW 8.3 mph13.4 kmh 29.95 in1014.2 mb 0.01 in0.3 mm 0.00 in0.0 mm 0.39 in9.9 mm
04:00 PM 65.8°F18.8°C 53.3°F11.8°C 64% 3.8 mph WNW6.1 kmh WNW 8.3 mph13.4 kmh 29.95 in1014.2 mb 0.01 in0.3 mm 0.00 in0.0 mm 0.39 in9.9 mm
04:10 PM 66.6°F19.2°C 53.2°F11.8°C 62% 4.5 mph SSW7.2 kmh SSW 6.0 mph9.7 kmh 29.95 in1014.2 mb 0.01 in0.3 mm 0.00 in0.0 mm 0.39 in9.9 mm
04:30 PM 66.4°F19.1°C 53.4°F11.9°C 63% 3.1 mph W5.0 kmh W 8.3 mph13.4 kmh 29.95 in1014.2 mb 0.00 in0.0 mm 0.00 in0.0 mm 0.39 in9.9 mm
04:40 PM 66.6°F19.2°C 51.3°F10.7°C 58% 1.6 mph SE2.6 kmh SE 7.6 mph12.2 kmh 29.95 in1014.2 mb 0.00 in0.0 mm 0.00 in0.0 mm 0.39 in9.9 mm
04:50 PM 66.9°F19.4°C 51.2°F10.7°C 57% 3.8 mph E6.1 kmh E 5.4 mph8.7 kmh 29.95 in1014.2 mb 0.00 in0.0 mm 0.00 in0.0 mm 0.39 in9.9 mm
05:00 PM 66.7°F19.3°C 52.0°F11.1°C 59% 3.1 mph ESE5.0 kmh ESE 5.4 mph8.7 kmh 29.94 in1013.9 mb 0.00 in0.0 mm 0.00 in0.0 mm 0.39 in9.9 mm
05:10 PM 66.9°F19.4°C 51.7°F10.9°C 58% 3.1 mph SE5.0 kmh SE 4.5 mph7.2 kmh 29.94 in1013.9 mb 0.00 in0.0 mm 0.00 in0.0 mm 0.39 in9.9 mm
05:20 PM 66.2°F19.0°C 51.5°F10.8°C 59% 3.1 mph W5.0 kmh W 5.4 mph8.7 kmh 29.95 in1014.2 mb 0.00 in0.0 mm 0.00 in0.0 mm 0.39 in9.9 mm
05:30 PM 65.3°F18.5°C 52.8°F11.6°C 64% 2.2 mph SW3.5 kmh SW 5.4 mph8.7 kmh 29.95 in1014.2 mb 0.00 in0.0 mm 0.00 in0.0 mm 0.39 in9.9 mm
05:40 PM 65.1°F18.4°C 53.5°F11.9°C 66% 0.7 mph ESE1.1 kmh ESE 4.5 mph7.2 kmh 29.95 in1014.2 mb 0.00 in0.0 mm 0.00 in0.0 mm 0.39 in9.9 mm
05:50 PM 64.6°F18.1°C 53.0°F11.7°C 66% 3.1 mph ESE5.0 kmh ESE 4.5 mph7.2 kmh 29.96 in1014.6 mb 0.00 in0.0 mm 0.00 in0.0 mm 0.39 in9.9 mm
06:00 PM 64.4°F18.0°C 52.8°F11.6°C 66% 3.1 mph E5.0 kmh E 5.4 mph8.7 kmh 29.96 in1014.6 mb 0.00 in0.0 mm 0.00 in0.0 mm 0.39 in9.9 mm
06:10 PM 64.2°F17.9°C 53.1°F11.7°C 67% 3.1 mph SE5.0 kmh SE 4.5 mph7.2 kmh 29.96 in1014.6 mb 0.00 in0.0 mm 0.00 in0.0 mm 0.39 in9.9 mm
06:20 PM 64.0°F17.8°C 52.9°F11.6°C 67% 1.6 mph W2.6 kmh W 3.8 mph6.1 kmh 29.96 in1014.6 mb 0.00 in0.0 mm 0.00 in0.0 mm 0.39 in9.9 mm
06:30 PM 63.9°F17.7°C 53.1°F11.7°C 68% 1.6 mph SE2.6 kmh SE 3.1 mph5.0 kmh 29.96 in1014.6 mb 0.00 in0.0 mm 0.00 in0.0 mm 0.39 in9.9 mm
06:40 PM 63.7°F17.6°C 52.9°F11.6°C 68% 0.7 mph S1.1 kmh S 3.1 mph5.0 kmh 29.96 in1014.6 mb 0.00 in0.0 mm 0.00 in0.0 mm 0.39 in9.9 mm
06:50 PM 63.5°F17.5°C 54.3°F12.4°C 72% 2.2 mph SE3.5 kmh SE 4.5 mph7.2 kmh 29.96 in1014.6 mb 0.00 in0.0 mm 0.00 in0.0 mm 0.39 in9.9 mm
07:00 PM 63.1°F17.3°C 55.5°F13.1°C 76% 2.2 mph SE3.5 kmh SE 7.6 mph12.2 kmh 29.96 in1014.6 mb 0.00 in0.0 mm 0.00 in0.0 mm 0.39 in9.9 mm
07:10 PM 62.8°F17.1°C 55.5°F13.1°C 77% 0.7 mph SE1.1 kmh SE 6.9 mph11.1 kmh 29.97 in1014.9 mb 0.00 in0.0 mm 0.00 in0.0 mm 0.39 in9.9 mm
07:20 PM 62.4°F16.9°C 55.8°F13.2°C 79% 3.1 mph E5.0 kmh E 4.5 mph7.2 kmh 29.97 in1014.9 mb 0.00 in0.0 mm 0.00 in0.0 mm 0.39 in9.9 mm
07:30 PM 62.4°F16.9°C 55.5°F13.1°C 78% 2.2 mph E3.5 kmh E 4.5 mph7.2 kmh 29.97 in1014.9 mb 0.00 in0.0 mm 0.00 in0.0 mm 0.39 in9.9 mm
07:40 PM 62.4°F16.9°C 55.1°F12.8°C 77% Calm Calm 3.1 mph5.0 kmh 29.98 in1015.2 mb 0.00 in0.0 mm 0.00 in0.0 mm 0.39 in9.9 mm
07:50 PM 62.2°F16.8°C 55.3°F12.9°C 78% Calm Calm 0.7 mph1.1 kmh 29.98 in1015.2 mb 0.00 in0.0 mm 0.00 in0.0 mm 0.39 in9.9 mm
08:00 PM 62.2°F16.8°C 56.7°F13.7°C 82% 6.0 mph ENE9.7 kmh ENE 9.2 mph14.8 kmh 29.99 in1015.6 mb 0.00 in0.0 mm 0.00 in0.0 mm 0.39 in9.9 mm
08:10 PM 61.0°F16.1°C 56.1°F13.4°C 84% 4.5 mph ENE7.2 kmh ENE 8.3 mph13.4 kmh 30.00 in1015.9 mb 0.00 in0.0 mm 0.00 in0.0 mm 0.39 in9.9 mm
08:20 PM 60.1°F15.6°C 56.5°F13.6°C 88% 0.7 mph E1.1 kmh E 6.0 mph9.7 kmh 30.00 in1015.9 mb 0.00 in0.0 mm 0.00 in0.0 mm 0.39 in9.9 mm
08:30 PM 59.9°F15.5°C 56.7°F13.7°C 89% Calm Calm 2.2 mph3.5 kmh 30.00 in1015.9 mb 0.00 in0.0 mm 0.00 in0.0 mm 0.39 in9.9 mm
08:40 PM 59.7°F15.4°C 56.8°F13.8°C 90% 0.7 mph ESE1.1 kmh ESE 2.2 mph3.5 kmh 30.00 in1015.9 mb 0.00 in0.0 mm 0.00 in0.0 mm 0.39 in9.9 mm
08:50 PM 59.7°F15.4°C 56.8°F13.8°C 90% Calm Calm 3.1 mph5.0 kmh 30.00 in1015.9 mb 0.00 in0.0 mm 0.00 in0.0 mm 0.39 in9.9 mm
09:00 PM 59.9°F15.5°C 57.0°F13.9°C 90% 1.6 mph N2.6 kmh N 3.1 mph5.0 kmh 30.00 in1015.9 mb 0.00 in0.0 mm 0.00 in0.0 mm 0.39 in9.9 mm
09:10 PM 59.9°F15.5°C 56.7°F13.7°C 89% Calm Calm 4.5 mph7.2 kmh 30.01 in1016.3 mb 0.00 in0.0 mm 0.00 in0.0 mm 0.39 in9.9 mm
09:20 PM 59.9°F15.5°C 57.0°F13.9°C 90% 0.7 mph NW1.1 kmh NW 3.8 mph6.1 kmh 30.01 in1016.3 mb 0.00 in0.0 mm 0.00 in0.0 mm 0.39 in9.9 mm
09:30 PM 59.5°F15.3°C 56.9°F13.8°C 91% Calm Calm 2.2 mph3.5 kmh 30.01 in1016.3 mb 0.00 in0.0 mm 0.00 in0.0 mm 0.39 in9.9 mm
09:40 PM 59.5°F15.3°C 57.2°F14.0°C 92% Calm Calm -- 30.01 in1016.3 mb 0.00 in0.0 mm 0.00 in0.0 mm 0.39 in9.9 mm
09:50 PM 59.4°F15.2°C 57.3°F14.1°C 93% Calm Calm 3.1 mph5.0 kmh 30.01 in1016.3 mb 0.00 in0.0 mm 0.00 in0.0 mm 0.39 in9.9 mm
10:00 PM 59.4°F15.2°C 57.6°F14.2°C 94% 1.6 mph NNE2.6 kmh NNE 4.5 mph7.2 kmh 30.01 in1016.3 mb 0.00 in0.0 mm 0.00 in0.0 mm 0.39 in9.9 mm
10:10 PM 59.2°F15.1°C 57.8°F14.3°C 95% 0.7 mph NNE1.1 kmh NNE 4.5 mph7.2 kmh 30.01 in1016.3 mb 0.00 in0.0 mm 0.00 in0.0 mm 0.39 in9.9 mm
10:20 PM 59.2°F15.1°C 58.1°F14.5°C 96% Calm Calm 3.8 mph6.1 kmh 30.02 in1016.6 mb 0.00 in0.0 mm 0.00 in0.0 mm 0.39 in9.9 mm
10:30 PM 59.2°F15.1°C 58.1°F14.5°C 96% Calm Calm -- 30.02 in1016.6 mb 0.00 in0.0 mm 0.00 in0.0 mm 0.39 in9.9 mm
10:40 PM 58.8°F14.9°C 58.0°F14.4°C 97% Calm Calm -- 30.02 in1016.6 mb 0.00 in0.0 mm 0.00 in0.0 mm 0.39 in9.9 mm
10:50 PM 58.5°F14.7°C 57.6°F14.2°C 97% Calm Calm -- 30.02 in1016.6 mb 0.00 in0.0 mm 0.00 in0.0 mm 0.39 in9.9 mm
11:00 PM 58.5°F14.7°C 57.6°F14.2°C 97% Calm Calm -- 30.02 in1016.6 mb 0.00 in0.0 mm 0.00 in0.0 mm 0.26 in6.6 mm
11:10 PM 58.5°F14.7°C 57.6°F14.2°C 97% Calm Calm -- 30.02 in1016.6 mb 0.00 in0.0 mm 0.00 in0.0 mm 0.26 in6.6 mm
11:20 PM 58.8°F14.9°C 58.3°F14.6°C 98% Calm Calm -- 30.00 in1015.9 mb 0.00 in0.0 mm 0.00 in0.0 mm 0.26 in6.6 mm
11:30 PM 58.8°F14.9°C 58.6°F14.8°C 99% Calm Calm 3.1 mph5.0 kmh 30.00 in1015.9 mb 0.00 in0.0 mm 0.00 in0.0 mm 0.26 in6.6 mm
11:40 PM 58.8°F14.9°C 58.6°F14.8°C 99% Calm Calm 3.8 mph6.1 kmh 30.00 in1015.9 mb 0.00 in0.0 mm 0.00 in0.0 mm 0.26 in6.6 mm
11:50 PM 58.3°F14.6°C 57.7°F14.3°C 98% Calm Calm -- 30.00 in1015.9 mb 0.00 in0.0 mm 0.00 in0.0 mm 0.26 in6.6 mm